createdAt,value
2023-01-31T00:03:29.738Z,11.05
2023-01-31T00:08:52.847Z,11.43
2023-01-31T00:14:20.266Z,12.13
2023-01-31T00:19:42.263Z,14.48
2023-01-31T00:25:04.927Z,12.85
2023-01-31T00:30:26.909Z,9.88
2023-01-31T00:35:48.828Z,10.13
2023-01-31T00:41:11.146Z,11.27
2023-01-31T00:46:33.477Z,9.95
2023-01-31T00:51:55.357Z,14.77
2023-01-31T00:57:17.278Z,11.85
2023-01-31T01:02:39.147Z,10.07
2023-01-31T01:08:00.995Z,10.30
2023-01-31T01:13:22.867Z,10.98
2023-01-31T01:18:45.231Z,16.38
2023-01-31T01:24:14.223Z,10.68
2023-01-31T01:29:36.419Z,9.95
2023-01-31T01:34:58.299Z,10.38
2023-01-31T01:40:20.342Z,11.85
2023-01-31T01:45:42.310Z,10.65
2023-01-31T01:51:06.170Z,9.70
2023-01-31T01:56:34.235Z,9.52
2023-01-31T02:01:57.002Z,14.93
2023-01-31T02:07:19.459Z,13.77
2023-01-31T02:12:41.427Z,11.32
2023-01-31T02:18:03.498Z,10.93
2023-01-31T02:23:48.485Z,10.02
2023-01-31T02:29:16.333Z,11.32
2023-01-31T02:34:59.587Z,14.82
2023-01-31T02:40:43.307Z,10.75
2023-01-31T02:46:11.428Z,10.30
2023-01-31T02:51:44.143Z,13.35
2023-01-31T02:57:06.082Z,13.20
2023-01-31T03:02:28.801Z,8.95
2023-01-31T03:07:55.151Z,12.40
2023-01-31T03:13:16.941Z,11.32
2023-01-31T03:18:44.392Z,13.38
2023-01-31T03:24:07.971Z,12.55
2023-01-31T03:29:36.276Z,10.60
2023-01-31T03:34:58.528Z,12.48
2023-01-31T03:40:31.900Z,14.45
2023-01-31T03:46:07.402Z,13.20
2023-01-31T03:51:33.752Z,17.38
2023-01-31T03:57:00.201Z,10.50
2023-01-31T04:07:47.255Z,10.52
2023-01-31T04:13:09.522Z,12.38
2023-01-31T04:18:31.405Z,10.48
2023-01-31T04:23:53.287Z,16.15
2023-01-31T04:29:15.285Z,15.30
2023-01-31T04:34:37.162Z,15.60
2023-01-31T04:39:59.142Z,17.38
2023-01-31T04:45:21.444Z,12.23
2023-01-31T04:50:43.649Z,11.40
2023-01-31T04:56:05.774Z,14.95
2023-01-31T05:01:27.780Z,17.38
2023-01-31T05:06:49.645Z,16.70
2023-01-31T05:12:11.588Z,21.02
2023-01-31T05:17:34.201Z,17.42
2023-01-31T05:22:56.054Z,14.23
2023-01-31T05:28:18.086Z,15.73
2023-01-31T05:33:40.226Z,16.42
2023-01-31T05:39:02.132Z,17.98
2023-01-31T05:44:24.225Z,13.43
2023-01-31T05:49:46.060Z,14.55
2023-01-31T05:55:08.423Z,12.45
2023-01-31T06:00:30.933Z,14.80
2023-01-31T06:05:53.481Z,17.80
2023-01-31T06:11:15.610Z,13.50
2023-01-31T06:16:37.477Z,11.63
2023-01-31T06:21:59.940Z,13.55
2023-01-31T06:27:21.779Z,13.10
2023-01-31T06:32:43.633Z,16.15
2023-01-31T06:38:06.880Z,16.35
2023-01-31T06:43:28.754Z,13.02
2023-01-31T06:48:50.604Z,14.88
2023-01-31T06:54:12.443Z,15.30
2023-01-31T06:59:34.365Z,18.33
2023-01-31T07:04:56.636Z,12.88
2023-01-31T07:10:18.544Z,11.32
2023-01-31T07:15:40.467Z,14.57
2023-01-31T07:21:02.364Z,14.93
2023-01-31T07:26:24.243Z,12.40
2023-01-31T07:31:46.179Z,11.50
2023-01-31T07:37:08.060Z,9.13
2023-01-31T07:42:29.949Z,15.15
2023-01-31T07:47:52.636Z,13.45
2023-01-31T07:53:14.530Z,15.48
2023-01-31T07:58:37.376Z,12.70
2023-01-31T08:04:02.834Z,15.15
2023-01-31T08:09:33.135Z,11.27
2023-01-31T08:14:54.954Z,10.35
2023-01-31T08:20:17.196Z,10.55
2023-01-31T08:25:39.047Z,14.75
2023-01-31T08:31:08.599Z,14.18
2023-01-31T08:36:31.526Z,15.45
2023-01-31T08:41:53.518Z,10.45
2023-01-31T08:47:15.384Z,12.90
2023-01-31T08:52:37.178Z,13.77
2023-01-31T08:58:00.582Z,10.93
2023-01-31T09:03:22.473Z,8.35
2023-01-31T09:08:44.535Z,7.63
2023-01-31T09:14:06.757Z,10.30
2023-01-31T09:19:28.630Z,8.73
2023-01-31T09:24:50.476Z,8.88
2023-01-31T09:30:12.628Z,14.00
2023-01-31T09:35:34.492Z,10.23
2023-01-31T09:40:58.891Z,12.15
2023-01-31T09:46:25.940Z,10.98
2023-01-31T09:51:53.723Z,9.32
2023-01-31T09:57:27.554Z,8.90
2023-01-31T10:03:24.621Z,11.27
2023-01-31T10:09:03.011Z,10.45
2023-01-31T10:14:41.866Z,10.25
2023-01-31T10:20:32.776Z,12.25
2023-01-31T10:25:59.813Z,13.40
2023-01-31T10:31:32.778Z,11.38
2023-01-31T10:37:05.324Z,9.68
2023-01-31T10:42:36.823Z,14.02
2023-01-31T10:48:11.098Z,16.48
2023-01-31T10:53:54.255Z,11.68
2023-01-31T10:59:31.139Z,9.23
2023-01-31T11:04:56.238Z,10.93
2023-01-31T11:10:30.109Z,11.15
2023-01-31T11:15:54.367Z,9.73
2023-01-31T11:21:26.050Z,9.15
2023-01-31T11:27:09.261Z,15.88
2023-01-31T11:32:35.556Z,10.20
2023-01-31T11:38:20.214Z,8.85
2023-01-31T11:43:42.559Z,12.10
2023-01-31T11:49:12.434Z,10.90
2023-01-31T11:54:34.930Z,9.93
2023-01-31T11:59:59.071Z,10.63
2023-01-31T12:05:36.563Z,11.77
2023-01-31T12:10:59.221Z,8.15
2023-01-31T12:16:26.531Z,10.88
2023-01-31T12:22:05.708Z,9.52
2023-01-31T12:27:33.608Z,10.35
2023-01-31T12:33:27.673Z,9.85
2023-01-31T12:38:58.425Z,14.38
2023-01-31T12:44:43.739Z,11.30
2023-01-31T12:50:29.929Z,13.85
2023-01-31T12:56:00.940Z,9.15
2023-01-31T13:01:42.606Z,9.57
2023-01-31T13:07:10.491Z,9.70
2023-01-31T13:12:35.142Z,10.43
2023-01-31T13:18:03.161Z,9.05
2023-01-31T13:23:31.171Z,8.85
2023-01-31T13:29:01.787Z,8.60
2023-01-31T13:34:39.744Z,9.70
2023-01-31T13:40:18.776Z,11.70
2023-01-31T13:45:48.252Z,10.50
2023-01-31T13:51:22.768Z,10.15
2023-01-31T13:56:50.784Z,7.55
2023-01-31T14:02:20.119Z,11.57
2023-01-31T14:07:41.946Z,7.97
2023-01-31T14:13:24.713Z,6.97
2023-01-31T14:18:46.667Z,8.40
2023-01-31T14:24:20.016Z,11.13
2023-01-31T14:29:43.791Z,10.55
2023-01-31T14:35:14.461Z,8.52
2023-01-31T14:40:54.304Z,11.38
2023-01-31T14:46:55.150Z,7.80
2023-01-31T14:52:19.824Z,12.07
2023-01-31T14:57:45.245Z,10.80
2023-01-31T15:03:28.172Z,9.63
2023-01-31T15:08:59.129Z,15.75
2023-01-31T15:14:48.008Z,12.55
2023-01-31T15:20:18.112Z,10.98
2023-01-31T15:25:44.706Z,15.25
2023-01-31T15:31:36.551Z,12.80
2023-01-31T15:37:13.784Z,13.98
2023-01-31T15:42:35.621Z,9.77
2023-01-31T15:48:11.353Z,10.38
2023-01-31T15:53:33.380Z,11.67
2023-01-31T15:58:57.544Z,17.05
2023-01-31T16:04:19.447Z,12.02
2023-01-31T16:09:41.443Z,15.63
2023-01-31T16:15:07.340Z,11.77
2023-01-31T16:20:39.852Z,14.52
2023-01-31T16:26:08.728Z,15.30
2023-01-31T16:31:34.692Z,16.33
2023-01-31T16:37:01.385Z,17.50
2023-01-31T16:42:24.823Z,18.58
2023-01-31T16:47:48.808Z,15.77
2023-01-31T16:53:30.156Z,18.33
2023-01-31T16:58:56.354Z,22.60
2023-01-31T17:04:21.189Z,16.00
2023-01-31T17:09:43.172Z,20.17
2023-01-31T17:15:14.771Z,19.35
2023-01-31T17:20:37.161Z,18.02
2023-01-31T17:25:59.013Z,18.40
2023-01-31T17:31:24.522Z,22.30
2023-01-31T17:36:46.376Z,15.47
2023-01-31T17:42:17.821Z,13.52
2023-01-31T17:47:39.732Z,17.95
2023-01-31T17:53:01.640Z,14.73
2023-01-31T17:58:24.574Z,19.48
2023-01-31T18:03:46.521Z,16.42
2023-01-31T18:09:08.493Z,20.88
2023-01-31T18:14:30.456Z,19.73
2023-01-31T18:19:52.306Z,20.10
2023-01-31T18:25:14.288Z,18.80
2023-01-31T18:30:36.177Z,17.90
2023-01-31T18:35:59.495Z,17.65
2023-01-31T18:41:21.516Z,16.02
2023-01-31T18:46:43.447Z,22.05
2023-01-31T18:52:06.181Z,19.35
2023-01-31T18:57:28.095Z,21.17
2023-01-31T19:02:54.563Z,22.15
2023-01-31T19:13:38.433Z,15.98
2023-01-31T19:19:00.336Z,18.80
2023-01-31T19:24:22.266Z,18.90
2023-01-31T19:29:44.185Z,16.27
2023-01-31T19:35:06.601Z,17.15
2023-01-31T19:40:28.516Z,16.17
2023-01-31T19:45:50.447Z,20.08
2023-01-31T19:51:18.266Z,15.95
2023-01-31T19:56:40.278Z,16.40
2023-01-31T20:02:02.129Z,18.75
2023-01-31T20:07:24.075Z,16.15
2023-01-31T20:12:46.236Z,16.92
2023-01-31T20:18:08.112Z,13.18
2023-01-31T20:23:30.237Z,12.23
2023-01-31T20:28:52.218Z,11.65
2023-01-31T20:34:14.103Z,11.20
2023-01-31T20:39:36.002Z,15.70
2023-01-31T20:44:57.936Z,16.08
2023-01-31T20:50:20.054Z,11.07
2023-01-31T20:55:42.261Z,12.88
2023-01-31T21:01:06.504Z,14.30
2023-01-31T21:06:28.696Z,12.35
2023-01-31T21:11:50.691Z,11.48
2023-01-31T21:17:12.566Z,9.75
2023-01-31T21:22:34.812Z,9.10
2023-01-31T21:27:56.717Z,9.18
2023-01-31T21:33:18.598Z,9.35
2023-01-31T21:38:41.449Z,8.65
2023-01-31T21:44:04.145Z,8.25
2023-01-31T21:49:26.310Z,10.27
2023-01-31T21:54:48.144Z,10.82
2023-01-31T22:00:11.574Z,8.90
2023-01-31T22:05:33.428Z,7.93
2023-01-31T22:11:21.542Z,9.77
2023-01-31T22:16:44.244Z,7.75
2023-01-31T22:22:06.136Z,9.45
2023-01-31T22:27:27.986Z,7.22
2023-01-31T22:32:49.840Z,5.95
2023-01-31T22:38:11.711Z,6.25
2023-01-31T22:43:36.945Z,8.73
2023-01-31T22:48:58.847Z,7.85
2023-01-31T22:54:20.707Z,8.98
2023-01-31T22:59:42.601Z,8.07
2023-01-31T23:05:04.730Z,8.63
2023-01-31T23:10:27.354Z,9.18
2023-01-31T23:15:49.254Z,8.75
2023-01-31T23:21:18.259Z,7.78
2023-01-31T23:26:40.403Z,9.85
2023-01-31T23:32:02.346Z,8.50
2023-01-31T23:37:24.434Z,10.27
2023-01-31T23:42:46.448Z,8.60
2023-01-31T23:48:08.374Z,11.85
2023-01-31T23:53:30.319Z,7.05
2023-01-31T23:58:53.531Z,6.55
